sensor_id;sensor_type;location;lat;lon;timestamp;pressure;altitude;pressure_sealevel;temperature;humidity
7760;BME280;3924;48.830;9.262;2022-09-03T00:00:19;98146.84;;;18.61;52.39
7760;BME280;3924;48.830;9.262;2022-09-03T00:02:56;98155.88;;;18.62;53.27
7760;BME280;3924;48.830;9.262;2022-09-03T00:08:36;98145.69;;;18.62;52.58
7760;BME280;3924;48.830;9.262;2022-09-03T00:16:17;98138.69;;;18.65;52.53
7760;BME280;3924;48.830;9.262;2022-09-03T00:18:52;98136.28;;;18.63;52.19
7760;BME280;3924;48.830;9.262;2022-09-03T00:21:33;98141.09;;;18.66;52.41
7760;BME280;3924;48.830;9.262;2022-09-03T00:24:03;98133.19;;;18.65;52.71
7760;BME280;3924;48.830;9.262;2022-09-03T00:26:33;98128.50;;;18.65;52.68
7760;BME280;3924;48.830;9.262;2022-09-03T00:29:12;98135.59;;;18.66;53.12
7760;BME280;3924;48.830;9.262;2022-09-03T00:32:12;98139.59;;;18.69;52.88
7760;BME280;3924;48.830;9.262;2022-09-03T00:34:48;98146.69;;;18.70;52.58
7760;BME280;3924;48.830;9.262;2022-09-03T00:37:16;98138.09;;;18.71;52.29
7760;BME280;3924;48.830;9.262;2022-09-03T00:39:43;98141.25;;;18.73;52.81
7760;BME280;3924;48.830;9.262;2022-09-03T00:42:39;98142.94;;;18.78;52.25
7760;BME280;3924;48.830;9.262;2022-09-03T00:51:50;98131.91;;;18.74;52.84
7760;BME280;3924;48.830;9.262;2022-09-03T00:57:23;98138.09;;;18.71;52.30
7760;BME280;3924;48.830;9.262;2022-09-03T01:05:31;98138.63;;;18.77;52.54
7760;BME280;3924;48.830;9.262;2022-09-03T01:08:13;98140.56;;;18.76;52.45
7760;BME280;3924;48.830;9.262;2022-09-03T01:13:40;98134.28;;;18.76;52.55
7760;BME280;3924;48.830;9.262;2022-09-03T01:29:59;98133.13;;;18.77;52.92
7760;BME280;3924;48.830;9.262;2022-09-03T01:32:47;98131.16;;;18.77;53.02
7760;BME280;3924;48.830;9.262;2022-09-03T01:46:28;98135.44;;;18.75;53.13
7760;BME280;3924;48.830;9.262;2022-09-03T01:49:12;98133.47;;;18.75;52.91
7760;BME280;3924;48.830;9.262;2022-09-03T01:51:41;98142.16;;;18.77;52.71
7760;BME280;3924;48.830;9.262;2022-09-03T02:00:13;98147.81;;;18.84;53.49
7760;BME280;3924;48.830;9.262;2022-09-03T02:02:42;98149.75;;;18.84;52.69
7760;BME280;3924;48.830;9.262;2022-09-03T02:05:22;98146.22;;;18.83;53.67
7760;BME280;3924;48.830;9.262;2022-09-03T02:07:58;98151.28;;;18.81;52.54
7760;BME280;3924;48.830;9.262;2022-09-03T02:10:45;98146.59;;;18.82;53.61
7760;BME280;3924;48.830;9.262;2022-09-03T02:13:18;98148.00;;;18.76;53.82
7760;BME280;3924;48.830;9.262;2022-09-03T02:15:49;98145.63;;;18.74;53.10
7760;BME280;3924;48.830;9.262;2022-09-03T02:18:19;98144.00;;;18.73;53.32
7760;BME280;3924;48.830;9.262;2022-09-03T02:20:47;98151.81;;;18.71;54.11
7760;BME280;3924;48.830;9.262;2022-09-03T02:23:15;98147.47;;;18.70;53.74
7760;BME280;3924;48.830;9.262;2022-09-03T02:25:45;98159.25;;;18.71;54.22
7760;BME280;3924;48.830;9.262;2022-09-03T02:28:14;98165.91;;;18.70;53.20
7760;BME280;3924;48.830;9.262;2022-09-03T02:30:43;98163.97;;;18.70;53.53
7760;BME280;3924;48.830;9.262;2022-09-03T02:33:10;98169.09;;;18.72;53.45
7760;BME280;3924;48.830;9.262;2022-09-03T02:35:38;98164.06;;;18.74;53.65
7760;BME280;3924;48.830;9.262;2022-09-03T02:38:17;98160.94;;;18.75;54.25
7760;BME280;3924;48.830;9.262;2022-09-03T02:40:44;98158.56;;;18.74;53.61
7760;BME280;3924;48.830;9.262;2022-09-03T02:43:18;98156.16;;;18.72;53.70
7760;BME280;3924;48.830;9.262;2022-09-03T02:45:54;98146.69;;;18.70;53.31
7760;BME280;3924;48.830;9.262;2022-09-03T02:48:23;98148.19;;;18.67;53.64
7760;BME280;3924;48.830;9.262;2022-09-03T02:50:50;98152.91;;;18.67;54.15
7760;BME280;3924;48.830;9.262;2022-09-03T02:53:16;98147.63;;;18.62;54.61
7760;BME280;3924;48.830;9.262;2022-09-03T02:55:43;98145.53;;;18.55;54.41
7760;BME280;3924;48.830;9.262;2022-09-03T02:58:09;98142.25;;;18.49;53.91
7760;BME280;3924;48.830;9.262;2022-09-03T03:00:36;98139.38;;;18.46;54.61
7760;BME280;3924;48.830;9.262;2022-09-03T03:03:04;98141.34;;;18.45;54.68
7760;BME280;3924;48.830;9.262;2022-09-03T03:05:46;98137.38;;;18.43;55.16
7760;BME280;3924;48.830;9.262;2022-09-03T03:08:14;98137.28;;;18.39;55.06
7760;BME280;3924;48.830;9.262;2022-09-03T03:10:42;98140.66;;;18.33;55.24
7760;BME280;3924;48.830;9.262;2022-09-03T03:13:12;98144.09;;;18.29;55.30
7760;BME280;3924;48.830;9.262;2022-09-03T03:15:39;98157.38;;;18.27;54.66
7760;BME280;3924;48.830;9.262;2022-09-03T03:18:07;98148.00;;;18.28;55.46
7760;BME280;3924;48.830;9.262;2022-09-03T03:20:37;98158.97;;;18.28;55.28
7760;BME280;3924;48.830;9.262;2022-09-03T03:23:04;98161.34;;;18.30;54.70
7760;BME280;3924;48.830;9.262;2022-09-03T03:25:32;98158.25;;;18.31;54.69
7760;BME280;3924;48.830;9.262;2022-09-03T03:27:59;98156.66;;;18.30;54.92
7760;BME280;3924;48.830;9.262;2022-09-03T03:30:26;98164.53;;;18.32;55.47
7760;BME280;3924;48.830;9.262;2022-09-03T03:32:53;98162.63;;;18.33;55.08
7760;BME280;3924;48.830;9.262;2022-09-03T03:35:20;98165.34;;;18.33;54.72
7760;BME280;3924;48.830;9.262;2022-09-03T03:37:47;98157.38;;;18.27;55.43
7760;BME280;3924;48.830;9.262;2022-09-03T03:40:13;98159.69;;;18.25;55.84
7760;BME280;3924;48.830;9.262;2022-09-03T03:42:41;98164.72;;;18.23;55.43
7760;BME280;3924;48.830;9.262;2022-09-03T03:45:08;98161.88;;;18.20;55.53
7760;BME280;3924;48.830;9.262;2022-09-03T03:47:35;98160.19;;;18.15;55.58
7760;BME280;3924;48.830;9.262;2022-09-03T03:50:03;98164.09;;;18.14;55.88
7760;BME280;3924;48.830;9.262;2022-09-03T03:52:29;98166.84;;;18.14;55.64
7760;BME280;3924;48.830;9.262;2022-09-03T03:54:56;98161.72;;;18.13;55.49
7760;BME280;3924;48.830;9.262;2022-09-03T03:57:23;98171.53;;;18.14;56.30
7760;BME280;3924;48.830;9.262;2022-09-03T03:59:49;98175.41;;;18.13;56.23
7760;BME280;3924;48.830;9.262;2022-09-03T04:02:16;98171.88;;;18.12;55.67
7760;BME280;3924;48.830;9.262;2022-09-03T04:04:43;98173.91;;;18.15;56.27
7760;BME280;3924;48.830;9.262;2022-09-03T04:07:10;98176.66;;;18.15;56.15
7760;BME280;3924;48.830;9.262;2022-09-03T04:09:36;98178.97;;;18.13;56.15
7760;BME280;3924;48.830;9.262;2022-09-03T04:12:03;98168.84;;;18.17;55.82
7760;BME280;3924;48.830;9.262;2022-09-03T04:14:34;98169.56;;;18.14;56.03
7760;BME280;3924;48.830;9.262;2022-09-03T04:17:14;98160.91;;;18.12;56.16
7760;BME280;3924;48.830;9.262;2022-09-03T04:19:40;98163.19;;;18.10;56.34
7760;BME280;3924;48.830;9.262;2022-09-03T04:22:07;98162.03;;;18.11;56.81
7760;BME280;3924;48.830;9.262;2022-09-03T04:24:33;98167.09;;;18.09;56.72
7760;BME280;3924;48.830;9.262;2022-09-03T04:27:00;98167.81;;;18.06;57.04
7760;BME280;3924;48.830;9.262;2022-09-03T04:29:27;98170.97;;;18.08;57.01
7760;BME280;3924;48.830;9.262;2022-09-03T04:31:55;98158.50;;;18.11;56.87
7760;BME280;3924;48.830;9.262;2022-09-03T04:34:40;98165.50;;;18.08;57.25
7760;BME280;3924;48.830;9.262;2022-09-03T04:37:07;98168.94;;;18.05;57.09
7760;BME280;3924;48.830;9.262;2022-09-03T04:39:34;98172.13;;;18.07;57.44
7760;BME280;3924;48.830;9.262;2022-09-03T04:42:01;98167.09;;;18.09;57.11
7760;BME280;3924;48.830;9.262;2022-09-03T04:44:27;98168.94;;;18.05;57.29
7760;BME280;3924;48.830;9.262;2022-09-03T04:46:54;98178.22;;;18.00;57.31
7760;BME280;3924;48.830;9.262;2022-09-03T04:49:20;98176.97;;;17.98;57.07
7760;BME280;3924;48.830;9.262;2022-09-03T04:51:46;98169.88;;;17.97;57.45
7760;BME280;3924;48.830;9.262;2022-09-03T04:54:13;98178.81;;;17.94;57.28
7760;BME280;3924;48.830;9.262;2022-09-03T04:56:40;98168.66;;;17.94;57.46
7760;BME280;3924;48.830;9.262;2022-09-03T04:59:08;98167.94;;;17.97;58.06
7760;BME280;3924;48.830;9.262;2022-09-03T05:01:36;98168.41;;;17.99;57.67
7760;BME280;3924;48.830;9.262;2022-09-03T05:04:07;98168.03;;;18.01;57.56
7760;BME280;3924;48.830;9.262;2022-09-03T05:06:34;98169.19;;;18.00;57.89
7760;BME280;3924;48.830;9.262;2022-09-03T05:09:01;98170.78;;;18.01;57.68
7760;BME280;3924;48.830;9.262;2022-09-03T05:11:29;98180.97;;;18.00;58.00
7760;BME280;3924;48.830;9.262;2022-09-03T05:13:57;98173.97;;;18.03;58.25
7760;BME280;3924;48.830;9.262;2022-09-03T05:16:25;98170.06;;;18.04;57.96
7760;BME280;3924;48.830;9.262;2022-09-03T05:18:55;98172.81;;;18.04;57.97
7760;BME280;3924;48.830;9.262;2022-09-03T05:21:22;98173.97;;;18.03;58.02
7760;BME280;3924;48.830;9.262;2022-09-03T05:23:50;98180.59;;;18.02;58.18
7760;BME280;3924;48.830;9.262;2022-09-03T05:26:20;98175.38;;;17.97;58.62
7760;BME280;3924;48.830;9.262;2022-09-03T05:28:47;98169.09;;;17.96;57.84
7760;BME280;3924;48.830;9.262;2022-09-03T05:31:16;98173.78;;;17.96;58.15
7760;BME280;3924;48.830;9.262;2022-09-03T05:33:47;98175.47;;;18.00;57.67
7760;BME280;3924;48.830;9.262;2022-09-03T05:36:17;98179.81;;;18.01;58.48
7760;BME280;3924;48.830;9.262;2022-09-03T05:38:44;98176.34;;;18.04;57.79
7760;BME280;3924;48.830;9.262;2022-09-03T05:41:13;98178.78;;;18.06;57.65
7760;BME280;3924;48.830;9.262;2022-09-03T05:43:40;98180.13;;;18.12;57.82
7760;BME280;3924;48.830;9.262;2022-09-03T05:46:09;98186.22;;;18.21;57.67
7760;BME280;3924;48.830;9.262;2022-09-03T05:48:38;98177.03;;;18.29;57.69
7760;BME280;3924;48.830;9.262;2022-09-03T05:51:13;98183.41;;;18.34;57.42
7760;BME280;3924;48.830;9.262;2022-09-03T05:53:43;98183.41;;;18.34;57.37
7760;BME280;3924;48.830;9.262;2022-09-03T05:56:18;98186.16;;;18.34;58.06
7760;BME280;3924;48.830;9.262;2022-09-03T05:58:47;98185.00;;;18.35;57.81
7760;BME280;3924;48.830;9.262;2022-09-03T06:01:16;98191.03;;;18.40;57.60
7760;BME280;3924;48.830;9.262;2022-09-03T06:03:44;98197.94;;;18.50;57.62
7760;BME280;3924;48.830;9.262;2022-09-03T06:06:12;98200.00;;;18.53;57.77
7760;BME280;3924;48.830;9.262;2022-09-03T06:08:40;98200.44;;;18.55;57.64
7760;BME280;3924;48.830;9.262;2022-09-03T06:11:07;98201.28;;;18.59;57.20
7760;BME280;3924;48.830;9.262;2022-09-03T06:13:34;98195.91;;;18.63;57.76
7760;BME280;3924;48.830;9.262;2022-09-03T06:16:03;98197.88;;;18.62;57.97
7760;BME280;3924;48.830;9.262;2022-09-03T06:18:30;98209.03;;;18.53;56.99
7760;BME280;3924;48.830;9.262;2022-09-03T06:20:59;98208.84;;;18.46;57.42
7760;BME280;3924;48.830;9.262;2022-09-03T06:23:28;98197.69;;;18.39;57.92
7760;BME280;3924;48.830;9.262;2022-09-03T06:26:05;98198.47;;;18.40;58.07
7760;BME280;3924;48.830;9.262;2022-09-03T06:28:34;98202.34;;;18.39;58.81
7760;BME280;3924;48.830;9.262;2022-09-03T06:31:02;98204.84;;;18.44;58.09
7760;BME280;3924;48.830;9.262;2022-09-03T06:33:31;98205.63;;;18.44;58.11
7760;BME280;3924;48.830;9.262;2022-09-03T06:36:03;98202.53;;;18.46;58.12
7760;BME280;3924;48.830;9.262;2022-09-03T06:38:35;98202.38;;;18.54;58.49
7760;BME280;3924;48.830;9.262;2022-09-03T06:43:40;98191.41;;;18.70;57.36
7760;BME280;3924;48.830;9.262;2022-09-03T06:46:25;98202.84;;;18.72;58.17
7760;BME280;3924;48.830;9.262;2022-09-03T06:48:51;98207.53;;;18.72;58.46
7760;BME280;3924;48.830;9.262;2022-09-03T06:51:21;98207.16;;;18.73;57.69
7760;BME280;3924;48.830;9.262;2022-09-03T06:53:50;98201.59;;;18.70;58.33
7760;BME280;3924;48.830;9.262;2022-09-03T06:56:19;98205.06;;;18.67;57.61
7760;BME280;3924;48.830;9.262;2022-09-03T06:58:58;98209.47;;;18.71;58.08
7760;BME280;3924;48.830;9.262;2022-09-03T07:01:28;98202.50;;;18.74;57.55
7760;BME280;3924;48.830;9.262;2022-09-03T07:04:00;98208.16;;;18.81;58.09
7760;BME280;3924;48.830;9.262;2022-09-03T07:06:32;98211.94;;;18.92;58.19
7760;BME280;3924;48.830;9.262;2022-09-03T07:08:59;98209.00;;;19.01;58.26
7760;BME280;3924;48.830;9.262;2022-09-03T07:11:28;98200.59;;;19.09;57.64
7760;BME280;3924;48.830;9.262;2022-09-03T07:13:56;98207.13;;;19.21;56.99
7760;BME280;3924;48.830;9.262;2022-09-03T07:16:29;98195.59;;;19.31;57.23
7760;BME280;3924;48.830;9.262;2022-09-03T07:18:56;98204.34;;;19.36;57.89
7760;BME280;3924;48.830;9.262;2022-09-03T07:21:28;98207.25;;;19.44;57.64
7760;BME280;3924;48.830;9.262;2022-09-03T07:23:55;98206.94;;;19.49;57.86
7760;BME280;3924;48.830;9.262;2022-09-03T07:26:27;98211.47;;;19.57;57.23
7760;BME280;3924;48.830;9.262;2022-09-03T07:28:56;98209.25;;;19.62;57.75
7760;BME280;3924;48.830;9.262;2022-09-03T07:31:25;98212.81;;;19.63;57.59
7760;BME280;3924;48.830;9.262;2022-09-03T07:33:59;98213.25;;;19.65;57.50
7760;BME280;3924;48.830;9.262;2022-09-03T07:36:27;98214.75;;;19.62;56.78
7760;BME280;3924;48.830;9.262;2022-09-03T07:39:00;98214.84;;;19.66;57.48
7760;BME280;3924;48.830;9.262;2022-09-03T07:41:27;98213.81;;;19.74;56.67
7760;BME280;3924;48.830;9.262;2022-09-03T07:43:54;98216.78;;;19.85;57.57
7760;BME280;3924;48.830;9.262;2022-09-03T07:46:24;98214.09;;;19.88;57.67
7760;BME280;3924;48.830;9.262;2022-09-03T07:48:56;98207.91;;;19.91;57.02
7760;BME280;3924;48.830;9.262;2022-09-03T07:51:25;98210.69;;;19.95;57.26
7760;BME280;3924;48.830;9.262;2022-09-03T07:53:54;98208.47;;;20.01;56.84
7760;BME280;3924;48.830;9.262;2022-09-03T07:56:21;98220.34;;;20.05;56.41
7760;BME280;3924;48.830;9.262;2022-09-03T07:58:48;98224.88;;;20.16;57.28
7760;BME280;3924;48.830;9.262;2022-09-03T08:01:17;98220.50;;;20.35;57.41
7760;BME280;3924;48.830;9.262;2022-09-03T08:03:46;98224.84;;;20.55;56.64
7760;BME280;3924;48.830;9.262;2022-09-03T08:06:15;98217.47;;;20.86;55.49
7760;BME280;3924;48.830;9.262;2022-09-03T08:08:41;98227.06;;;21.18;55.30
7760;BME280;3924;48.830;9.262;2022-09-03T08:11:16;98229.53;;;21.50;54.46
7760;BME280;3924;48.830;9.262;2022-09-03T08:13:44;98219.28;;;21.50;55.22
7760;BME280;3924;48.830;9.262;2022-09-03T08:16:13;98232.56;;;21.41;54.51
7760;BME280;3924;48.830;9.262;2022-09-03T08:18:41;98226.50;;;21.32;55.33
7760;BME280;3924;48.830;9.262;2022-09-03T08:21:15;98222.72;;;21.17;56.03
7760;BME280;3924;48.830;9.262;2022-09-03T08:23:44;98223.81;;;21.13;56.03
7760;BME280;3924;48.830;9.262;2022-09-03T08:26:11;98237.25;;;21.14;55.53
7760;BME280;3924;48.830;9.262;2022-09-03T08:28:38;98232.56;;;21.18;56.22
7760;BME280;3924;48.830;9.262;2022-09-03T08:33:44;98224.50;;;21.59;56.04
7760;BME280;3924;48.830;9.262;2022-09-03T08:36:20;98234.66;;;21.51;56.08
7760;BME280;3924;48.830;9.262;2022-09-03T08:38:51;98231.59;;;21.56;56.11
7760;BME280;3924;48.830;9.262;2022-09-03T08:41:29;98231.34;;;22.02;54.81
7760;BME280;3924;48.830;9.262;2022-09-03T08:46:50;98225.66;;;22.96;52.62
7760;BME280;3924;48.830;9.262;2022-09-03T08:49:44;98232.31;;;22.91;53.40
7760;BME280;3924;48.830;9.262;2022-09-03T08:52:44;98232.75;;;22.93;52.86
7760;BME280;3924;48.830;9.262;2022-09-03T08:55:27;98224.72;;;23.33;52.48
7760;BME280;3924;48.830;9.262;2022-09-03T08:58:04;98229.16;;;23.41;51.76
7760;BME280;3924;48.830;9.262;2022-09-03T09:09:04;98261.03;;;22.43;55.43
7760;BME280;3924;48.830;9.262;2022-09-03T09:22:31;98269.34;;;21.79;56.46
7760;BME280;3924;48.830;9.262;2022-09-03T09:25:03;98269.66;;;21.74;56.79
7760;BME280;3924;48.830;9.262;2022-09-03T09:27:34;98265.53;;;21.61;57.45
7760;BME280;3924;48.830;9.262;2022-09-03T09:30:03;98263.09;;;21.55;55.99
7760;BME280;3924;48.830;9.262;2022-09-03T09:32:31;98266.59;;;21.52;56.75
7760;BME280;3924;48.830;9.262;2022-09-03T09:34:59;98266.91;;;21.47;57.01
7760;BME280;3924;48.830;9.262;2022-09-03T09:37:25;98264.31;;;21.32;57.01
7760;BME280;3924;48.830;9.262;2022-09-03T09:40:02;98265.75;;;21.25;57.43
7760;BME280;3924;48.830;9.262;2022-09-03T09:42:29;98263.13;;;21.33;57.51
7760;BME280;3924;48.830;9.262;2022-09-03T09:45:08;98257.25;;;21.61;56.17
7760;BME280;3924;48.830;9.262;2022-09-03T09:47:37;98251.16;;;22.08;56.38
7760;BME280;3924;48.830;9.262;2022-09-03T09:50:16;98248.63;;;22.63;54.51
7760;BME280;3924;48.830;9.262;2022-09-03T09:53:08;98251.13;;;22.75;54.79
7760;BME280;3924;48.830;9.262;2022-09-03T09:55:51;98253.63;;;22.87;54.90
7760;BME280;3924;48.830;9.262;2022-09-03T09:58:19;98247.09;;;23.06;53.63
7760;BME280;3924;48.830;9.262;2022-09-03T10:01:20;98252.44;;;23.40;53.60
7760;BME280;3924;48.830;9.262;2022-09-03T10:03:56;98253.81;;;23.09;53.87
7760;BME280;3924;48.830;9.262;2022-09-03T10:06:25;98242.69;;;23.02;54.03
7760;BME280;3924;48.830;9.262;2022-09-03T10:09:13;98242.19;;;22.89;55.16
7760;BME280;3924;48.830;9.262;2022-09-03T10:12:21;98254.19;;;22.66;54.87
7760;BME280;3924;48.830;9.262;2022-09-03T10:17:52;98251.31;;;22.19;56.60
7760;BME280;3924;48.830;9.262;2022-09-03T10:20:30;98254.38;;;22.10;56.02
7760;BME280;3924;48.830;9.262;2022-09-03T10:25:58;98256.13;;;22.25;56.17
7760;BME280;3924;48.830;9.262;2022-09-03T10:28:34;98256.88;;;22.22;55.40
7760;BME280;3924;48.830;9.262;2022-09-03T10:31:17;98253.44;;;22.02;55.72
7760;BME280;3924;48.830;9.262;2022-09-03T10:39:35;98239.75;;;22.43;54.86
7760;BME280;3924;48.830;9.262;2022-09-03T10:44:59;98237.69;;;22.74;55.24
7760;BME280;3924;48.830;9.262;2022-09-03T10:47:55;98249.00;;;22.61;54.72
7760;BME280;3924;48.830;9.262;2022-09-03T10:50:32;98248.94;;;22.54;54.99
7760;BME280;3924;48.830;9.262;2022-09-03T10:53:13;98251.78;;;22.61;54.73
7760;BME280;3924;48.830;9.262;2022-09-03T10:55:58;98240.63;;;22.91;53.79
7760;BME280;3924;48.830;9.262;2022-09-03T11:02:04;98237.56;;;23.00;53.70
7760;BME280;3924;48.830;9.262;2022-09-03T11:04:49;98231.00;;;23.23;53.25
7760;BME280;3924;48.830;9.262;2022-09-03T11:07:21;98225.91;;;23.32;53.41
7760;BME280;3924;48.830;9.262;2022-09-03T11:10:06;98232.13;;;23.14;54.08
7760;BME280;3924;48.830;9.262;2022-09-03T11:13:04;98222.19;;;23.06;53.95
7760;BME280;3924;48.830;9.262;2022-09-03T11:18:11;98215.44;;;23.00;53.85
7760;BME280;3924;48.830;9.262;2022-09-03T11:20:41;98215.81;;;23.02;54.74
7760;BME280;3924;48.830;9.262;2022-09-03T11:23:10;98206.38;;;23.07;54.27
7760;BME280;3924;48.830;9.262;2022-09-03T11:25:47;98209.56;;;23.12;54.03
7760;BME280;3924;48.830;9.262;2022-09-03T11:33:33;98193.03;;;23.19;53.45
7760;BME280;3924;48.830;9.262;2022-09-03T11:36:06;98195.03;;;23.23;53.45
7760;BME280;3924;48.830;9.262;2022-09-03T11:38:33;98192.66;;;23.25;53.93
7760;BME280;3924;48.830;9.262;2022-09-03T11:41:11;98194.25;;;23.22;54.54
7760;BME280;3924;48.830;9.262;2022-09-03T11:43:42;98197.78;;;23.23;54.38
7760;BME280;3924;48.830;9.262;2022-09-03T11:48:53;98191.47;;;23.22;54.31
7760;BME280;3924;48.830;9.262;2022-09-03T11:56:25;98206.38;;;23.07;55.28
7760;BME280;3924;48.830;9.262;2022-09-03T11:59:04;98221.72;;;22.97;54.70
7760;BME280;3924;48.830;9.262;2022-09-03T12:01:33;98217.31;;;22.89;55.37
7760;BME280;3924;48.830;9.262;2022-09-03T12:04:04;98212.03;;;22.77;55.11
7760;BME280;3924;48.830;9.262;2022-09-03T12:09:51;98231.19;;;22.55;55.98
7760;BME280;3924;48.830;9.262;2022-09-03T12:12:29;98223.22;;;22.47;55.62
7760;BME280;3924;48.830;9.262;2022-09-03T12:17:57;98234.84;;;22.29;56.82
7760;BME280;3924;48.830;9.262;2022-09-03T12:20:42;98241.16;;;22.26;57.68
7760;BME280;3924;48.830;9.262;2022-09-03T12:23:10;98234.44;;;22.24;57.35
7760;BME280;3924;48.830;9.262;2022-09-03T12:25:44;98230.84;;;22.23;56.69
7760;BME280;3924;48.830;9.262;2022-09-03T12:28:16;98241.06;;;22.19;57.33
7760;BME280;3924;48.830;9.262;2022-09-03T12:30:46;98239.88;;;22.17;58.14
7760;BME280;3924;48.830;9.262;2022-09-03T12:33:16;98233.91;;;22.15;57.22
7760;BME280;3924;48.830;9.262;2022-09-03T12:35:54;98239.41;;;22.11;57.82
7760;BME280;3924;48.830;9.262;2022-09-03T12:38:27;98249.22;;;22.08;58.21
7760;BME280;3924;48.830;9.262;2022-09-03T12:40:54;98255.47;;;22.05;57.65
7760;BME280;3924;48.830;9.262;2022-09-03T12:43:50;98268.88;;;22.03;58.23
7760;BME280;3924;48.830;9.262;2022-09-03T12:46:17;98279.44;;;21.98;58.08
7760;BME280;3924;48.830;9.262;2022-09-03T12:48:58;98280.75;;;21.77;58.65
7760;BME280;3924;48.830;9.262;2022-09-03T12:51:49;98280.00;;;21.54;59.62
7760;BME280;3924;48.830;9.262;2022-09-03T12:54:22;98281.66;;;21.32;59.93
7760;BME280;3924;48.830;9.262;2022-09-03T12:56:57;98267.09;;;21.09;60.30
7760;BME280;3924;48.830;9.262;2022-09-03T12:59:27;98276.28;;;20.93;61.54
7760;BME280;3924;48.830;9.262;2022-09-03T13:01:57;98280.81;;;20.82;61.14
7760;BME280;3924;48.830;9.262;2022-09-03T13:04:32;98293.16;;;20.69;62.56
7760;BME280;3924;48.830;9.262;2022-09-03T13:09:36;98289.44;;;20.38;63.44
7760;BME280;3924;48.830;9.262;2022-09-03T13:12:03;98290.59;;;20.18;64.12
7760;BME280;3924;48.830;9.262;2022-09-03T13:14:46;98288.41;;;20.08;64.42
7760;BME280;3924;48.830;9.262;2022-09-03T13:23:01;98286.50;;;19.73;66.02
7760;BME280;3924;48.830;9.262;2022-09-03T13:25:46;98288.97;;;19.78;66.71
7760;BME280;3924;48.830;9.262;2022-09-03T13:31:28;98292.16;;;19.80;67.30
7760;BME280;3924;48.830;9.262;2022-09-03T13:34:02;98296.66;;;19.88;67.41
7760;BME280;3924;48.830;9.262;2022-09-03T13:36:58;98295.63;;;19.97;67.88
7760;BME280;3924;48.830;9.262;2022-09-03T13:39:37;98293.50;;;20.06;66.45
7760;BME280;3924;48.830;9.262;2022-09-03T13:42:15;98293.13;;;20.27;67.21
7760;BME280;3924;48.830;9.262;2022-09-03T13:44:46;98285.94;;;20.41;67.59
7760;BME280;3924;48.830;9.262;2022-09-03T13:47:26;98293.75;;;20.59;66.77
7760;BME280;3924;48.830;9.262;2022-09-03T13:50:17;98290.91;;;20.74;66.58
7760;BME280;3924;48.830;9.262;2022-09-03T13:53:01;98293.09;;;21.11;66.44
7760;BME280;3924;48.830;9.262;2022-09-03T13:58:00;98291.13;;;21.88;64.77
7760;BME280;3924;48.830;9.262;2022-09-03T14:00:39;98280.38;;;21.79;65.53
7760;BME280;3924;48.830;9.262;2022-09-03T14:03:16;98278.38;;;21.76;64.52
7760;BME280;3924;48.830;9.262;2022-09-03T14:14:30;98254.59;;;20.92;67.68
7760;BME280;3924;48.830;9.262;2022-09-03T14:17:11;98261.16;;;20.84;68.06
7760;BME280;3924;48.830;9.262;2022-09-03T14:19:47;98260.72;;;20.82;66.94
7760;BME280;3924;48.830;9.262;2022-09-03T14:22:22;98268.63;;;20.83;67.53
7760;BME280;3924;48.830;9.262;2022-09-03T14:25:02;98266.97;;;21.01;67.22
7760;BME280;3924;48.830;9.262;2022-09-03T14:27:31;98263.09;;;21.29;68.05
7760;BME280;3924;48.830;9.262;2022-09-03T14:30:00;98275.63;;;21.49;67.14
7760;BME280;3924;48.830;9.262;2022-09-03T14:40:29;98265.88;;;20.60;69.44
7760;BME280;3924;48.830;9.262;2022-09-03T14:45:51;98260.94;;;20.50;69.15
7760;BME280;3924;48.830;9.262;2022-09-03T14:49:33;98266.81;;;20.48;69.25
7760;BME280;3924;48.830;9.262;2022-09-03T14:54:29;98281.09;;;20.54;70.37
7760;BME280;3924;48.830;9.262;2022-09-03T14:57:13;98280.59;;;20.48;69.07
7760;BME280;3924;48.830;9.262;2022-09-03T14:59:59;98280.81;;;20.40;70.78
7760;BME280;3924;48.830;9.262;2022-09-03T15:05:09;98278.59;;;20.45;69.36
7760;BME280;3924;48.830;9.262;2022-09-03T15:07:41;98267.56;;;20.45;69.43
7760;BME280;3924;48.830;9.262;2022-09-03T15:10:30;98275.09;;;20.48;70.57
7760;BME280;3924;48.830;9.262;2022-09-03T15:13:06;98281.47;;;20.53;69.45
7760;BME280;3924;48.830;9.262;2022-09-03T15:24:04;98281.22;;;20.84;70.07
7760;BME280;3924;48.830;9.262;2022-09-03T15:27:04;98294.59;;;21.05;69.15
7760;BME280;3924;48.830;9.262;2022-09-03T15:37:29;98285.00;;;22.01;67.12
7760;BME280;3924;48.830;9.262;2022-09-03T15:42:29;98285.94;;;21.82;67.73
7760;BME280;3924;48.830;9.262;2022-09-03T15:48:04;98283.66;;;21.62;68.86
7760;BME280;3924;48.830;9.262;2022-09-03T15:50:46;98283.03;;;21.72;68.77
7760;BME280;3924;48.830;9.262;2022-09-03T15:53:35;98283.91;;;21.79;68.40
7760;BME280;3924;48.830;9.262;2022-09-03T15:56:18;98279.09;;;21.73;67.85
7760;BME280;3924;48.830;9.262;2022-09-03T15:58:51;98280.44;;;21.56;68.48
7760;BME280;3924;48.830;9.262;2022-09-03T16:13:17;98278.38;;;21.26;69.85
7760;BME280;3924;48.830;9.262;2022-09-03T16:16:10;98287.94;;;21.29;68.41
7760;BME280;3924;48.830;9.262;2022-09-03T16:18:42;98292.69;;;21.32;68.35
7760;BME280;3924;48.830;9.262;2022-09-03T16:21:34;98288.72;;;21.29;68.62
7760;BME280;3924;48.830;9.262;2022-09-03T16:24:19;98291.84;;;21.28;69.03
7760;BME280;3924;48.830;9.262;2022-09-03T16:26:59;98292.97;;;21.27;68.95
7760;BME280;3924;48.830;9.262;2022-09-03T16:29:30;98290.97;;;21.24;68.33
7760;BME280;3924;48.830;9.262;2022-09-03T16:37:13;98283.78;;;21.19;69.38
7760;BME280;3924;48.830;9.262;2022-09-03T16:45:42;98277.16;;;21.24;69.40
7760;BME280;3924;48.830;9.262;2022-09-03T17:14:24;98281.19;;;21.53;69.55
7760;BME280;3924;48.830;9.262;2022-09-03T17:17:15;98293.34;;;21.48;68.41
7760;BME280;3924;48.830;9.262;2022-09-03T17:23:12;98293.56;;;21.36;69.53
7760;BME280;3924;48.830;9.262;2022-09-03T17:25:53;98293.44;;;21.29;69.62
7760;BME280;3924;48.830;9.262;2022-09-03T17:31:57;98298.75;;;21.18;69.86
7760;BME280;3924;48.830;9.262;2022-09-03T17:40:20;98295.63;;;20.97;70.21
7760;BME280;3924;48.830;9.262;2022-09-03T17:46:02;98312.28;;;20.81;71.12
7760;BME280;3924;48.830;9.262;2022-09-03T17:48:41;98318.09;;;20.76;70.30
7760;BME280;3924;48.830;9.262;2022-09-03T17:53:45;98326.28;;;20.72;70.81
7760;BME280;3924;48.830;9.262;2022-09-03T17:56:27;98320.72;;;20.69;71.09
7760;BME280;3924;48.830;9.262;2022-09-03T17:59:16;98321.81;;;20.64;70.74
7760;BME280;3924;48.830;9.262;2022-09-03T18:02:03;98333.16;;;20.59;70.99
7760;BME280;3924;48.830;9.262;2022-09-03T18:12:53;98351.66;;;20.43;71.06
7760;BME280;3924;48.830;9.262;2022-09-03T18:15:37;98355.53;;;20.38;71.04